Time;durP1;ratioP1;P1;durP2;ratioP2;P2;SDS_P1;SDS_P2;PMS_P1;PMS_P2;Temp;Humidity;BMP_temperature;BMP_pressure;BME280_temperature;BME280_humidity;BME280_pressure;Samples;Min_cycle;Max_cycle;Signal;HPM_P1;HPM_P2
2023/10/15 00:38:47;;;;;;;3.33;1.40;;;;;;;13.93;100.00;99162.84;6148563;23;20211;-87
2023/10/15 05:03:49;;;;;;;4.63;1.37;;;;;;;11.15;100.00;99268.84;6126575;23;20237;-86
2023/10/15 05:06:25;;;;;;;3.77;1.40;;;;;;;11.09;100.00;99277.84;6101465;23;20194;-85
2023/10/15 05:09:00;;;;;;;3.50;1.30;;;;;;;11.03;100.00;99268.03;6125243;23;20168;-85
2023/10/15 05:11:28;;;;;;;2.63;1.30;;;;;;;10.92;100.00;99269.66;6125811;23;20192;-84
2023/10/15 05:14:04;;;;;;;3.10;1.40;;;;;;;10.83;100.00;99268.34;6080066;23;20179;-83
2023/10/15 05:16:42;;;;;;;2.50;1.37;;;;;;;10.81;100.00;99281.19;6101349;23;20164;-85
2023/10/15 05:19:16;;;;;;;4.57;1.60;;;;;;;10.83;100.00;99286.28;6103206;23;20183;-84
2023/10/15 05:21:53;;;;;;;2.90;1.20;;;;;;;10.71;100.00;99280.09;6102842;23;20151;-84
2023/10/15 05:24:21;;;;;;;3.17;1.33;;;;;;;10.75;100.00;99289.31;6101430;23;20278;-84
2023/10/15 05:26:56;;;;;;;3.43;1.50;;;;;;;10.68;100.00;99294.78;6100930;23;20175;-85
2023/10/15 05:29:28;;;;;;;3.10;1.40;;;;;;;10.71;100.00;99294.31;6101975;23;20682;-85
2023/10/15 05:31:58;;;;;;;4.60;1.47;;;;;;;10.63;100.00;99294.63;6077956;23;20179;-84
2023/10/15 05:34:31;;;;;;;4.33;1.50;;;;;;;10.62;100.00;99303.72;6079137;23;20168;-84
2023/10/15 05:37:03;;;;;;;3.20;1.30;;;;;;;10.57;100.00;99303.56;6103732;23;20168;-85
2023/10/15 05:39:31;;;;;;;6.70;1.57;;;;;;;10.53;100.00;99292.50;6079796;23;20168;-83
2023/10/15 05:41:59;;;;;;;5.57;1.40;;;;;;;10.49;100.00;99303.91;6102916;23;20229;-84
2023/10/15 05:44:26;;;;;;;4.17;1.80;;;;;;;10.52;100.00;99309.63;6079017;23;20730;-85
2023/10/15 05:46:55;;;;;;;3.20;1.30;;;;;;;10.50;100.00;99306.34;6102826;23;20622;-86
2023/10/15 05:49:28;;;;;;;3.03;1.50;;;;;;;10.67;100.00;99300.34;6103786;23;20258;-84
2023/10/15 05:52:16;;;;;;;4.30;1.33;;;;;;;10.58;100.00;99305.22;6102579;23;20171;-85
2023/10/15 05:54:51;;;;;;;4.10;1.60;;;;;;;10.45;100.00;99316.13;6125929;23;20167;-84
2023/10/15 05:57:22;;;;;;;4.17;1.30;;;;;;;10.43;100.00;99312.84;6103296;23;20190;-85
2023/10/15 05:59:50;;;;;;;3.07;1.20;;;;;;;10.42;100.00;99312.00;6103196;23;20164;-85
2023/10/15 06:02:18;;;;;;;4.07;1.07;;;;;;;10.45;100.00;99321.47;6078612;23;20206;-84
2023/10/15 06:04:52;;;;;;;3.47;1.80;;;;;;;10.56;100.00;99315.31;6081425;23;20242;-83
2023/10/15 06:07:22;;;;;;;3.87;1.50;;;;;;;10.60;100.00;99322.69;6080243;23;20172;-84
2023/10/15 06:09:54;;;;;;;3.33;1.20;;;;;;;10.55;100.00;99327.06;6103292;23;20168;-84
2023/10/15 06:12:22;;;;;;;4.80;1.63;;;;;;;10.56;100.00;99332.22;6102694;23;20647;-85
2023/10/15 06:14:50;;;;;;;2.87;1.20;;;;;;;10.62;100.00;99330.50;6102428;23;20171;-85
2023/10/15 06:17:21;;;;;;;4.80;1.70;;;;;;;10.63;100.00;99334.00;6102305;23;20175;-85
2023/10/15 06:19:52;;;;;;;2.97;1.80;;;;;;;10.70;100.00;99340.91;6104244;23;20155;-84
2023/10/15 06:22:30;;;;;;;2.97;1.77;;;;;;;10.63;100.00;99337.50;6127494;23;20645;-85
2023/10/15 06:24:58;;;;;;;2.37;1.50;;;;;;;10.69;100.00;99333.06;6102599;23;20176;-85
2023/10/15 06:27:27;;;;;;;4.20;1.60;;;;;;;10.70;100.00;99330.19;6102738;23;20630;-84
2023/10/15 06:29:54;;;;;;;3.80;1.50;;;;;;;10.72;100.00;99329.97;6102363;23;20163;-84
2023/10/15 06:32:30;;;;;;;4.17;1.60;;;;;;;10.69;100.00;99330.41;6081398;23;20155;-85
2023/10/15 06:35:06;;;;;;;4.07;1.60;;;;;;;10.72;100.00;99329.97;6080197;23;20187;-86
2023/10/15 06:37:38;;;;;;;3.33;1.50;;;;;;;10.83;100.00;99331.84;6127036;23;20164;-86
2023/10/15 06:40:09;;;;;;;1.70;1.03;;;;;;;10.84;100.00;99330.81;6081031;23;20175;-85
2023/10/15 06:42:51;;;;;;;4.53;1.30;;;;;;;10.91;100.00;99318.13;6084049;23;20183;-85
2023/10/15 06:45:19;;;;;;;3.20;1.43;;;;;;;10.89;100.00;99325.56;6079913;23;20611;-85
2023/10/15 06:47:51;;;;;;;2.70;1.30;;;;;;;10.83;100.00;99329.16;6101865;23;20179;-86
2023/10/15 06:50:26;;;;;;;2.77;1.30;;;;;;;10.92;100.00;99339.34;6080884;23;20164;-87
2023/10/15 06:52:54;;;;;;;3.73;1.57;;;;;;;10.76;100.00;99333.81;6079222;23;20163;-86
2023/10/15 06:55:24;;;;;;;7.43;3.87;;;;;;;10.81;100.00;99340.13;6103324;23;20674;-87
2023/10/15 06:57:56;;;;;;;5.80;1.80;;;;;;;11.01;100.00;99337.97;6080312;23;20171;-85
2023/10/15 07:00:31;;;;;;;4.53;1.53;;;;;;;11.26;100.00;99339.66;6127185;23;20180;-85
2023/10/15 07:03:06;;;;;;;3.07;1.13;;;;;;;11.43;100.00;99336.03;6103892;23;20230;-85
2023/10/15 07:05:36;;;;;;;3.83;1.50;;;;;;;11.65;100.00;99340.84;6103226;23;20195;-87
2023/10/15 07:08:07;;;;;;;3.63;1.30;;;;;;;11.68;100.00;99330.47;6102747;23;20160;-87
2023/10/15 07:10:38;;;;;;;3.10;1.33;;;;;;;11.84;100.00;99337.84;6098480;23;20164;-85
2023/10/15 07:13:06;;;;;;;4.07;1.20;;;;;;;12.00;100.00;99340.84;6076011;23;20192;-83
2023/10/15 07:15:40;;;;;;;3.00;1.53;;;;;;;12.17;100.00;99331.84;6100834;23;20175;-83
2023/10/15 07:18:12;;;;;;;5.03;1.30;;;;;;;12.35;100.00;99330.88;6079050;23;20171;-84
2023/10/15 07:20:43;;;;;;;3.73;1.10;;;;;;;12.45;100.00;99331.06;6102375;23;20189;-85
2023/10/15 07:23:11;;;;;;;3.80;1.30;;;;;;;12.51;100.00;99337.34;6124914;23;20667;-85
2023/10/15 07:25:53;;;;;;;3.70;1.20;;;;;;;12.62;100.00;99331.13;6103576;23;20167;-85
2023/10/15 07:28:24;;;;;;;6.67;1.40;;;;;;;12.84;100.00;99329.38;6078462;23;20282;-84
2023/10/15 07:30:57;;;;;;;2.70;1.17;;;;;;;12.94;100.00;99329.56;6102005;23;20247;-84
2023/10/15 07:33:28;;;;;;;4.93;1.50;;;;;;;13.09;100.00;99329.03;6102058;23;20167;-85
2023/10/15 07:36:02;;;;;;;2.97;1.50;;;;;;;13.19;100.00;99326.53;6102758;23;20168;-85
2023/10/15 07:38:33;;;;;;;3.50;1.60;;;;;;;13.05;100.00;99327.88;6101021;23;20173;-86
2023/10/15 07:41:02;;;;;;;1.87;1.23;;;;;;;13.17;100.00;99321.38;6102003;23;20244;-84
2023/10/15 07:43:32;;;;;;;3.70;1.43;;;;;;;13.27;100.00;99318.06;6125234;23;20196;-85
2023/10/15 07:46:06;;;;;;;3.53;1.57;;;;;;;13.52;100.00;99325.72;6101804;23;20682;-85
2023/10/15 07:48:39;;;;;;;3.23;1.20;;;;;;;13.48;100.00;99319.22;6101012;23;20180;-84
2023/10/15 07:51:18;;;;;;;4.90;1.63;;;;;;;13.29;100.00;99325.91;6124993;23;20181;-85
2023/10/15 07:53:46;;;;;;;4.70;1.70;;;;;;;13.22;100.00;99320.66;6100993;23;20156;-85
2023/10/15 07:56:14;;;;;;;4.33;1.90;;;;;;;13.02;100.00;99325.66;6076464;23;20662;-85
2023/10/15 07:58:42;;;;;;;2.80;1.53;;;;;;;13.19;100.00;99338.13;6076935;23;20271;-85
2023/10/15 08:01:15;;;;;;;2.90;1.30;;;;;;;13.40;100.00;99327.66;6077412;23;20172;-86
2023/10/15 08:03:45;;;;;;;3.83;1.40;;;;;;;13.54;100.00;99328.97;6124850;23;20290;-85
2023/10/15 08:06:14;;;;;;;4.10;1.53;;;;;;;13.48;100.00;99319.22;6100010;23;20177;-86
2023/10/15 08:08:45;;;;;;;3.33;1.60;;;;;;;13.10;100.00;99328.78;6100894;23;20165;-85
2023/10/15 08:11:15;;;;;;;4.60;1.53;;;;;;;13.50;100.00;99333.22;6123802;23;20165;-86
2023/10/15 08:13:51;;;;;;;2.73;1.50;;;;;;;13.61;100.00;99330.44;6078697;23;20160;-85
2023/10/15 08:16:20;;;;;;;5.03;1.50;;;;;;;13.65;100.00;99334.28;6101066;23;20217;-85
2023/10/15 08:18:54;;;;;;;4.87;1.50;;;;;;;13.72;100.00;99326.00;6103041;23;20173;-82
2023/10/15 08:21:23;;;;;;;4.17;1.53;;;;;;;13.57;100.00;99318.53;6100090;23;20251;-83
2023/10/15 08:23:54;;;;;;;4.57;1.77;;;;;;;13.59;100.00;99318.28;6077727;23;20189;-83
2023/10/15 08:26:23;;;;;;;4.27;1.60;;;;;;;13.64;100.00;99319.19;6099089;23;20525;-83
2023/10/15 08:28:58;;;;;;;4.07;2.03;;;;;;;13.52;100.00;99306.88;6101261;23;20245;-84
2023/10/15 08:31:28;;;;;;;5.87;1.70;;;;;;;13.63;100.00;99301.38;6100253;23;20166;-84
2023/10/15 08:33:56;;;;;;;4.63;2.03;;;;;;;13.57;100.00;99282.75;6076110;23;20172;-84
2023/10/15 08:36:27;;;;;;;3.87;1.80;;;;;;;13.53;100.00;99295.06;6100668;23;20251;-83
2023/10/15 08:38:54;;;;;;;4.60;1.70;;;;;;;13.64;100.00;99302.22;6100304;23;20172;-83
2023/10/15 08:41:24;;;;;;;5.03;1.80;;;;;;;13.61;100.00;99308.91;6100382;23;20169;-84
2023/10/15 08:43:56;;;;;;;2.73;1.50;;;;;;;13.64;100.00;99310.28;6078200;23;20650;-83
2023/10/15 08:46:33;;;;;;;5.40;1.90;;;;;;;13.75;100.00;99306.69;6077536;23;20177;-85
2023/10/15 08:49:02;;;;;;;3.17;1.87;;;;;;;13.71;100.00;99323.59;6078168;23;20168;-83
2023/10/15 08:51:34;;;;;;;4.20;1.70;;;;;;;13.86;100.00;99324.59;6100433;23;20196;-83
2023/10/15 08:54:08;;;;;;;3.47;1.60;;;;;;;14.07;100.00;99321.13;6077927;23;20175;-84
2023/10/15 08:56:40;;;;;;;2.37;1.60;;;;;;;14.19;100.00;99318.31;6079710;23;20189;-84
2023/10/15 08:59:10;;;;;;;4.97;1.77;;;;;;;14.68;100.00;99310.28;6101350;23;20612;-84
2023/10/15 09:01:42;;;;;;;5.27;1.83;;;;;;;14.64;100.00;99322.66;6076535;23;20201;-83
2023/10/15 09:04:13;;;;;;;4.17;1.67;;;;;;;14.75;100.00;99311.69;6077646;23;20185;-84
2023/10/15 09:06:47;;;;;;;3.20;1.60;;;;;;;14.73;100.00;99315.72;6076529;23;20175;-84
2023/10/15 09:09:15;;;;;;;4.17;1.50;;;;;;;15.26;100.00;99310.28;6078138;23;20178;-84
2023/10/15 09:11:43;;;;;;;3.30;1.50;;;;;;;15.68;100.00;99317.63;6102376;23;20186;-84
2023/10/15 09:14:13;;;;;;;3.67;1.80;;;;;;;16.04;100.00;99315.97;6102479;23;20170;-83
2023/10/15 09:16:47;;;;;;;3.13;1.70;;;;;;;16.23;100.00;99323.38;6078946;23;20198;-83
2023/10/15 09:19:18;;;;;;;3.17;1.70;;;;;;;15.37;100.00;99316.59;6103018;23;20170;-84
2023/10/15 09:21:47;;;;;;;4.47;1.50;;;;;;;15.24;100.00;99320.53;6079055;23;20173;-85
2023/10/15 09:24:15;;;;;;;3.87;1.57;;;;;;;14.41;100.00;99327.25;6102329;23;20199;-84
2023/10/15 09:26:51;;;;;;;1.70;1.40;;;;;;;13.96;100.00;99348.16;6103426;23;20209;-84
2023/10/15 09:29:19;;;;;;;2.33;1.10;;;;;;;13.45;100.00;99344.72;6126498;23;20200;-84
2023/10/15 09:31:49;;;;;;;3.70;1.50;;;;;;;12.89;100.00;99342.09;6079243;23;20177;-84
2023/10/15 09:34:20;;;;;;;3.83;1.60;;;;;;;12.45;100.00;99343.69;6080827;23;20207;-86
2023/10/15 09:36:53;;;;;;;2.60;1.30;;;;;;;12.35;100.00;99347.81;6103400;23;20243;-83
2023/10/15 09:39:22;;;;;;;6.23;1.60;;;;;;;12.28;100.00;99339.06;6103136;23;20164;-84
2023/10/15 09:41:49;;;;;;;3.90;1.40;;;;;;;12.14;100.00;99353.78;6078947;23;20173;-83
2023/10/15 09:44:23;;;;;;;3.07;1.37;;;;;;;12.07;100.00;99355.81;6103941;23;20195;-84
2023/10/15 09:46:52;;;;;;;7.10;1.63;;;;;;;11.88;100.00;99351.63;6079537;23;20172;-86
2023/10/15 09:49:23;;;;;;;4.10;1.50;;;;;;;11.82;100.00;99355.22;6078992;23;20615;-86
2023/10/15 09:51:52;;;;;;;2.43;1.40;;;;;;;11.61;100.00;99355.78;6103882;23;20173;-85
2023/10/15 09:54:23;;;;;;;2.83;1.40;;;;;;;11.71;100.00;99369.44;6102901;23;20251;-85
2023/10/15 09:56:54;;;;;;;4.03;1.83;;;;;;;11.33;100.00;99377.91;6102348;23;20169;-84
2023/10/15 09:59:25;;;;;;;3.73;1.53;;;;;;;11.27;100.00;99376.16;6101187;23;20179;-84
2023/10/15 10:01:54;;;;;;;4.40;1.50;;;;;;;11.11;100.00;99377.63;6076311;23;20658;-84
2023/10/15 10:04:42;;;;;;;4.93;1.90;;;;;;;11.04;100.00;99369.69;6075414;23;20195;-83
2023/10/15 10:07:34;;;;;;;3.23;1.70;;;;;;;10.86;100.00;99360.88;6099190;23;20171;-85
2023/10/15 10:10:27;;;;;;;2.87;1.40;;;;;;;10.82;100.00;99359.72;6123533;23;20168;-84
2023/10/15 10:13:22;;;;;;;3.57;1.60;;;;;;;10.81;100.00;99363.44;6122371;23;20528;-84
2023/10/15 10:15:54;;;;;;;5.57;1.53;;;;;;;10.77;100.00;99359.56;6123294;23;20164;-84
2023/10/15 10:18:25;;;;;;;7.00;1.83;;;;;;;10.76;100.00;99361.44;6101513;23;20254;-84
2023/10/15 10:20:56;;;;;;;4.60;1.67;;;;;;;10.74;100.00;99347.44;6102905;23;20678;-83
2023/10/15 10:23:28;;;;;;;4.70;1.83;;;;;;;10.76;100.00;99339.16;6125990;23;20168;-84
2023/10/15 10:26:17;;;;;;;3.40;1.70;;;;;;;10.80;100.00;99338.50;6104371;23;20167;-84
2023/10/15 10:28:54;;;;;;;4.10;1.87;;;;;;;10.86;100.00;99331.41;6124799;23;20164;-84
2023/10/15 10:31:26;;;;;;;3.80;1.60;;;;;;;10.97;100.00;99319.88;6100039;23;20172;-83
2023/10/15 10:34:10;;;;;;;3.80;2.13;;;;;;;11.08;100.00;99329.81;6101815;23;20248;-83
2023/10/15 10:36:41;;;;;;;3.73;2.00;;;;;;;11.27;100.00;99326.00;6126116;23;20172;-85
2023/10/15 10:39:13;;;;;;;3.47;1.63;;;;;;;11.25;100.00;99322.75;6125826;23;20168;-84
2023/10/15 10:41:44;;;;;;;3.73;1.50;;;;;;;11.31;100.00;99318.31;6101992;23;20258;-84
2023/10/15 10:44:39;;;;;;;5.30;1.90;;;;;;;11.35;100.00;99303.38;6101260;23;20218;-84
2023/10/15 10:47:17;;;;;;;6.10;2.10;;;;;;;11.46;100.00;99303.41;6078371;23;20191;-85
2023/10/15 10:49:55;;;;;;;4.30;2.40;;;;;;;11.59;100.00;99309.59;6102313;23;20164;-84
2023/10/15 10:53:10;;;;;;;5.07;2.10;;;;;;;11.68;100.00;99316.22;6107167;23;20162;-84
2023/10/15 10:55:41;;;;;;;3.17;1.87;;;;;;;11.71;100.00;99319.25;6078033;23;20172;-84
2023/10/15 10:58:26;;;;;;;3.83;1.70;;;;;;;11.73;100.00;99325.25;6125588;23;20507;-85
2023/10/15 11:00:58;;;;;;;4.07;1.70;;;;;;;11.72;100.00;99328.97;6102749;23;20178;-84
2023/10/15 11:03:30;;;;;;;4.10;1.80;;;;;;;11.71;100.00;99319.25;6101584;23;20573;-84
2023/10/15 11:06:01;;;;;;;5.87;1.77;;;;;;;11.63;100.00;99316.09;6102105;23;20166;-84
2023/10/15 11:08:35;;;;;;;3.33;1.70;;;;;;;11.61;100.00;99321.72;6103430;23;20163;-84
2023/10/15 11:11:04;;;;;;;6.47;2.00;;;;;;;11.49;100.00;99313.66;6102205;23;20517;-89
2023/10/15 11:13:33;;;;;;;4.23;1.90;;;;;;;11.58;100.00;99302.56;6101867;23;20195;-87
2023/10/15 11:16:05;;;;;;;6.17;1.70;;;;;;;11.42;100.00;99302.25;6102564;23;20800;-87
2023/10/15 11:18:35;;;;;;;2.33;1.40;;;;;;;11.41;100.00;99300.59;6101600;23;20172;-88
2023/10/15 11:21:02;;;;;;;4.93;1.43;;;;;;;11.42;100.00;99301.44;6078815;23;20173;-86
2023/10/15 11:23:34;;;;;;;5.13;1.50;;;;;;;11.32;100.00;99295.81;6079400;23;20258;-87
2023/10/15 11:26:15;;;;;;;4.27;1.70;;;;;;;11.30;100.00;99305.94;6081829;23;20626;-86
2023/10/15 11:28:45;;;;;;;4.23;1.50;;;;;;;11.30;100.00;99303.28;6101708;23;20168;-85
2023/10/15 11:31:13;;;;;;;4.53;2.07;;;;;;;11.24;100.00;99299.66;6078811;23;20180;-87
2023/10/15 11:33:44;;;;;;;3.60;1.37;;;;;;;11.19;100.00;99283.47;6102020;23;20231;-87
2023/10/15 11:36:17;;;;;;;2.40;1.33;;;;;;;11.27;100.00;99284.97;6102524;23;20194;-87
2023/10/15 11:38:45;;;;;;;4.10;1.10;;;;;;;11.28;100.00;99278.56;6078634;23;20618;-85
2023/10/15 11:41:15;;;;;;;2.90;1.00;;;;;;;11.38;100.00;99270.75;6102394;23;20180;-86
2023/10/15 11:43:48;;;;;;;1.40;0.97;;;;;;;11.28;100.00;99265.97;6079166;23;20171;-83
2023/10/15 11:46:23;;;;;;;2.17;1.10;;;;;;;11.21;100.00;99284.03;6078024;23;20160;-83
2023/10/15 11:48:51;;;;;;;3.80;1.23;;;;;;;11.19;100.00;99296.88;6078756;23;20606;-86
2023/10/15 11:51:22;;;;;;;2.63;1.20;;;;;;;11.17;100.00;99293.59;6100090;23;20568;-85
2023/10/15 11:53:50;;;;;;;3.13;1.23;;;;;;;11.18;100.00;99289.03;6101296;23;20246;-85
2023/10/15 11:56:23;;;;;;;2.83;1.33;;;;;;;11.16;100.00;99293.81;6125036;23;20646;-85
2023/10/15 11:58:51;;;;;;;3.00;1.10;;;;;;;11.23;100.00;99299.91;6101247;23;20524;-86
2023/10/15 12:01:23;;;;;;;4.33;1.57;;;;;;;11.26;100.00;99304.78;6102123;23;20159;-86
2023/10/15 12:03:58;;;;;;;3.73;1.67;;;;;;;11.32;100.00;99301.19;6102184;23;20192;-86
2023/10/15 12:06:32;;;;;;;3.63;1.50;;;;;;;11.81;100.00;99289.16;6101261;23;20164;-85
2023/10/15 12:09:01;;;;;;;1.80;1.40;;;;;;;12.21;100.00;99287.34;6126772;23;20179;-85
2023/10/15 12:11:33;;;;;;;4.10;1.40;;;;;;;12.37;100.00;99293.81;6125463;23;20236;-85
2023/10/15 12:14:05;;;;;;;4.00;1.90;;;;;;;12.34;100.00;99295.13;6124683;23;20168;-85
2023/10/15 12:16:39;;;;;;;3.63;2.00;;;;;;;12.19;100.00;99292.13;6125490;23;20168;-84
2023/10/15 12:19:13;;;;;;;3.80;1.67;;;;;;;12.07;100.00;99303.97;6102123;23;20515;-85
2023/10/15 12:21:44;;;;;;;4.20;2.00;;;;;;;11.98;100.00;99300.84;6126732;23;20152;-85
2023/10/15 12:24:13;;;;;;;6.30;1.80;;;;;;;11.90;100.00;99302.00;6101077;23;20239;-85
2023/10/15 12:26:43;;;;;;;3.13;1.77;;;;;;;11.87;100.00;99301.66;6078566;23;20167;-85
2023/10/15 12:29:17;;;;;;;3.90;1.80;;;;;;;11.88;100.00;99298.75;6101607;23;20176;-86
2023/10/15 12:31:59;;;;;;;3.30;1.80;;;;;;;11.99;100.00;99302.44;6126298;23;20159;-85
2023/10/15 12:34:30;;;;;;;4.37;2.13;;;;;;;12.09;100.00;99299.16;6100738;23;20177;-86
2023/10/15 12:36:57;;;;;;;4.20;2.30;;;;;;;12.23;100.00;99301.34;6077316;23;20179;-85
2023/10/15 12:39:28;;;;;;;3.10;2.03;;;;;;;12.29;100.00;99289.66;6101304;23;20176;-85
2023/10/15 12:41:58;;;;;;;4.50;1.53;;;;;;;12.44;100.00;99269.50;6125439;23;20186;-85
2023/10/15 12:44:40;;;;;;;5.10;1.60;;;;;;;12.61;100.00;99255.06;6100938;23;20228;-85
2023/10/15 12:47:12;;;;;;;3.43;1.70;;;;;;;12.68;100.00;99273.72;6101549;23;20194;-85
2023/10/15 12:49:40;;;;;;;3.50;1.90;;;;;;;12.48;100.00;99287.59;6124576;23;20177;-85
2023/10/15 12:52:08;;;;;;;3.20;1.50;;;;;;;12.26;100.00;99294.69;6124772;23;20174;-84
2023/10/15 12:54:40;;;;;;;2.77;1.27;;;;;;;11.95;100.00;99287.03;6101074;23;20228;-86
2023/10/15 12:57:07;;;;;;;2.40;1.40;;;;;;;11.90;100.00;99283.19;6077432;23;20173;-86
2023/10/15 12:59:35;;;;;;;3.93;1.47;;;;;;;11.78;100.00;99274.38;6100728;23;20170;-86
2023/10/15 13:02:03;;;;;;;3.37;1.40;;;;;;;11.75;100.00;99279.41;6076961;23;20205;-85
2023/10/15 13:04:32;;;;;;;2.07;1.33;;;;;;;11.71;100.00;99270.94;6077221;23;20216;-86
2023/10/15 13:06:59;;;;;;;3.33;1.20;;;;;;;11.70;100.00;99269.34;6077221;23;20168;-85
2023/10/15 13:09:38;;;;;;;4.73;1.40;;;;;;;11.66;100.00;99276.22;6126169;23;20174;-85
2023/10/15 13:12:11;;;;;;;2.23;1.30;;;;;;;11.55;100.00;99278.91;6102701;23;20192;-86
2023/10/15 13:14:40;;;;;;;3.33;1.20;;;;;;;11.52;100.00;99272.16;6101012;23;20219;-86
2023/10/15 13:17:10;;;;;;;3.20;1.50;;;;;;;11.49;100.00;99275.28;6077632;23;20238;-84
2023/10/15 13:19:44;;;;;;;2.80;1.40;;;;;;;11.48;100.00;99269.09;6100637;23;20179;-85
2023/10/15 13:22:20;;;;;;;2.97;1.10;;;;;;;11.37;100.00;99269.13;6102028;23;20180;-85
2023/10/15 13:24:51;;;;;;;3.03;1.57;;;;;;;11.36;100.00;99267.47;6100684;23;20184;-85
2023/10/15 13:27:21;;;;;;;3.43;1.33;;;;;;;11.35;100.00;99265.84;6077525;23;20183;-84
2023/10/15 13:29:51;;;;;;;4.83;2.77;;;;;;;11.32;100.00;99269.00;6101013;23;20177;-84
2023/10/15 13:32:20;;;;;;;12.63;6.20;;;;;;;11.29;100.00;99272.94;6076691;23;20223;-84
2023/10/15 13:34:59;;;;;;;4.83;2.23;;;;;;;11.29;100.00;99267.59;6102343;23;20164;-83
2023/10/15 13:37:28;;;;;;;3.83;2.00;;;;;;;11.32;100.00;99269.00;6077135;23;20263;-83
2023/10/15 13:39:58;;;;;;;4.90;2.07;;;;;;;11.41;100.00;99262.22;6124276;23;20199;-83
2023/10/15 13:42:27;;;;;;;4.30;2.03;;;;;;;11.52;100.00;99263.28;6124228;23;20169;-83
2023/10/15 13:44:57;;;;;;;3.87;2.00;;;;;;;11.63;100.00;99275.88;6098073;23;20196;-83
2023/10/15 13:47:25;;;;;;;4.30;2.00;;;;;;;11.83;100.00;99266.44;6100071;23;20247;-83
2023/10/15 13:49:55;;;;;;;4.10;2.07;;;;;;;12.07;100.00;99266.38;6076936;23;20175;-84
2023/10/15 13:52:25;;;;;;;4.53;2.27;;;;;;;12.48;100.00;99259.91;6099816;23;20176;-83
2023/10/15 13:54:52;;;;;;;4.07;2.03;;;;;;;12.63;100.00;99250.25;6099882;23;20172;-83
2023/10/15 13:57:21;;;;;;;4.83;2.47;;;;;;;12.70;100.00;99256.28;6124022;23;20197;-84
2023/10/15 13:59:52;;;;;;;4.77;2.63;;;;;;;12.68;100.00;99262.97;6099800;23;20168;-83
2023/10/15 14:02:25;;;;;;;3.30;1.80;;;;;;;12.55;100.00;99269.44;6127275;23;20518;-84
2023/10/15 14:04:59;;;;;;;3.53;2.03;;;;;;;12.38;100.00;99265.91;6126330;23;20184;-84
2023/10/15 14:07:26;;;;;;;3.00;1.67;;;;;;;12.18;100.00;99274.38;6102326;23;20177;-85
2023/10/15 14:09:59;;;;;;;3.53;1.60;;;;;;;12.04;100.00;99273.00;6126255;23;20223;-83
2023/10/15 14:12:29;;;;;;;3.40;1.57;;;;;;;11.85;100.00;99267.00;6124675;23;20185;-84
2023/10/15 14:14:58;;;;;;;3.57;1.63;;;;;;;11.70;100.00;99268.53;6126114;23;20674;-84
2023/10/15 14:17:26;;;;;;;4.10;1.60;;;;;;;11.61;100.00;99275.28;6126367;23;20181;-84
2023/10/15 14:20:00;;;;;;;4.03;1.67;;;;;;;11.44;100.00;99267.94;6079619;23;20160;-84
2023/10/15 14:22:28;;;;;;;4.73;1.57;;;;;;;11.37;100.00;99272.63;6128172;23;20172;-84
2023/10/15 14:25:00;;;;;;;5.00;1.87;;;;;;;11.26;100.00;99275.28;6102464;23;20222;-85
2023/10/15 14:27:27;;;;;;;5.03;1.60;;;;;;;11.15;100.00;99271.53;6102231;23;20174;-83
2023/10/15 14:29:56;;;;;;;5.97;1.87;;;;;;;11.08;100.00;99281.56;6102375;23;20199;-84
2023/10/15 14:32:26;;;;;;;5.80;1.80;;;;;;;11.11;100.00;99288.31;6126640;23;20227;-83
2023/10/15 14:34:54;;;;;;;5.67;2.07;;;;;;;11.11;100.00;99293.69;6102188;23;20224;-83
2023/10/15 14:37:21;;;;;;;3.17;1.70;;;;;;;11.09;100.00;99288.56;6126907;23;20248;-84
2023/10/15 14:39:54;;;;;;;3.80;1.93;;;;;;;11.03;100.00;99309.06;6102588;23;20569;-83
2023/10/15 14:42:24;;;;;;;4.07;1.87;;;;;;;11.02;100.00;99306.59;6079165;23;20163;-84
2023/10/15 14:45:00;;;;;;;3.50;2.00;;;;;;;10.97;100.00;99301.13;6078932;23;20199;-83
2023/10/15 14:47:34;;;;;;;3.37;1.70;;;;;;;10.93;100.00;99316.84;6079843;23;20156;-83
2023/10/15 14:50:05;;;;;;;3.30;1.83;;;;;;;10.84;100.00;99320.91;6125878;23;20514;-84
2023/10/15 14:52:36;;;;;;;3.67;1.47;;;;;;;10.92;100.00;99323.25;6102008;23;20679;-82
2023/10/15 14:55:06;;;;;;;2.20;1.10;;;;;;;10.89;100.00;99329.06;6125783;23;20172;-83
2023/10/15 14:57:35;;;;;;;2.33;1.40;;;;;;;10.93;100.00;99340.97;6127111;23;20248;-82
2023/10/15 15:00:04;;;;;;;3.03;1.20;;;;;;;10.79;100.00;99352.94;6126040;23;20203;-83
2023/10/15 15:02:33;;;;;;;2.00;1.00;;;;;;;10.78;100.00;99366.56;6101529;23;20207;-83
2023/10/15 15:05:03;;;;;;;1.90;1.30;;;;;;;10.84;100.00;99376.38;6078055;23;20191;-83
2023/10/15 15:07:34;;;;;;;2.43;1.10;;;;;;;10.64;100.00;99379.31;6126438;23;20219;-83
2023/10/15 15:10:10;;;;;;;2.10;1.03;;;;;;;10.45;100.00;99389.22;6103169;23;20206;-83
2023/10/15 15:12:38;;;;;;;2.03;1.00;;;;;;;10.33;100.00;99399.06;6125720;23;20266;-82
2023/10/15 15:15:16;;;;;;;2.73;1.10;;;;;;;10.21;100.00;99395.50;6102308;23;20192;-82
2023/10/15 15:17:46;;;;;;;3.40;1.23;;;;;;;10.09;100.00;99391.88;6102513;23;20211;-82
2023/10/15 15:20:16;;;;;;;2.93;1.40;;;;;;;9.97;100.00;99381.09;6101589;23;20258;-83
2023/10/15 15:22:46;;;;;;;4.57;1.77;;;;;;;9.86;100.00;99372.97;6077985;23;20174;-82
2023/10/15 15:25:15;;;;;;;1.37;1.17;;;;;;;9.76;100.00;99364.63;6101730;23;20270;-82
2023/10/15 15:27:45;;;;;;;2.90;1.30;;;;;;;9.66;100.00;99373.16;6101373;23;20195;-82
2023/10/15 15:30:23;;;;;;;2.97;1.40;;;;;;;9.44;100.00;99374.56;6102245;23;20175;-81
2023/10/15 15:32:54;;;;;;;2.13;1.33;;;;;;;9.29;100.00;99375.72;6078669;23;20614;-81
2023/10/15 15:35:21;;;;;;;2.70;1.27;;;;;;;9.21;100.00;99380.50;6078146;23;20191;-84
2023/10/15 15:37:48;;;;;;;1.70;1.33;;;;;;;9.08;100.00;99383.28;6077656;23;20623;-86
2023/10/15 15:40:15;;;;;;;2.60;1.30;;;;;;;9.00;100.00;99386.22;6078125;23;20223;-83
2023/10/15 15:42:45;;;;;;;2.47;1.23;;;;;;;8.91;100.00;99382.16;6102335;23;20603;-82
2023/10/15 15:45:25;;;;;;;3.27;1.40;;;;;;;8.81;100.00;99394.13;6125621;23;20210;-84
2023/10/15 15:48:10;;;;;;;3.30;1.40;;;;;;;8.80;100.00;99397.00;6105855;23;20198;-83
2023/10/15 15:50:40;;;;;;;3.50;1.20;;;;;;;8.79;100.00;99400.72;6077980;23;20172;-83
2023/10/15 15:53:06;;;;;;;2.23;1.40;;;;;;;8.80;100.00;99402.34;6101857;23;20172;-83
2023/10/15 15:55:40;;;;;;;2.00;1.30;;;;;;;8.79;100.00;99414.06;6102386;23;20164;-82
2023/10/15 15:58:11;;;;;;;2.43;1.33;;;;;;;8.79;100.00;99416.75;6125975;23;20148;-82
2023/10/15 16:00:42;;;;;;;3.33;1.60;;;;;;;8.79;100.00;99428.25;6126318;23;20171;-82
2023/10/15 16:03:09;;;;;;;2.30;1.47;;;;;;;8.81;100.00;99430.72;6077776;23;20235;-83
2023/10/15 16:05:37;;;;;;;3.37;1.50;;;;;;;8.79;100.00;99433.59;6127267;23;20227;-82
2023/10/15 16:08:06;;;;;;;3.60;1.90;;;;;;;8.75;100.00;99440.41;6078587;23;20226;-82
2023/10/15 16:10:39;;;;;;;2.23;1.23;;;;;;;8.77;100.00;99432.19;6127041;23;20178;-85
2023/10/15 16:13:07;;;;;;;2.47;1.40;;;;;;;8.78;100.00;99439.13;6126832;23;20186;-86
2023/10/15 16:15:36;;;;;;;2.57;1.50;;;;;;;8.73;100.00;99438.94;6102005;23;20198;-84
2023/10/15 16:18:08;;;;;;;1.57;1.47;;;;;;;8.72;100.00;99437.34;6125993;23;20175;-87
2023/10/15 16:20:38;;;;;;;2.47;1.40;;;;;;;8.76;100.00;99430.53;6102801;23;20168;-85
2023/10/15 16:23:06;;;;;;;2.83;1.60;;;;;;;8.69;100.00;99435.06;6102575;23;20179;-86
2023/10/15 16:25:36;;;;;;;2.67;1.53;;;;;;;8.68;100.00;99431.56;6101590;23;20187;-84
2023/10/15 16:28:06;;;;;;;1.47;1.30;;;;;;;8.71;100.00;99438.38;6101640;23;20195;-84
2023/10/15 16:30:42;;;;;;;1.97;1.50;;;;;;;8.67;100.00;99442.50;6125988;23;20607;-86
2023/10/15 16:33:14;;;;;;;2.13;1.30;;;;;;;8.69;100.00;99451.91;6103415;23;20241;-85
2023/10/15 16:35:46;;;;;;;1.87;1.23;;;;;;;8.65;100.00;99455.22;6102995;23;20174;-83
2023/10/15 16:38:14;;;;;;;2.47;1.10;;;;;;;8.66;100.00;99462.22;6126809;23;20163;-83
2023/10/15 16:40:41;;;;;;;2.70;1.23;;;;;;;8.64;100.00;99464.25;6101112;23;20165;-84
2023/10/15 16:43:08;;;;;;;2.37;1.10;;;;;;;8.62;100.00;99471.69;6101194;23;20242;-87
2023/10/15 16:45:40;;;;;;;3.57;1.20;;;;;;;8.75;100.00;99472.44;6124103;23;20279;-86
2023/10/15 16:48:10;;;;;;;1.47;1.20;;;;;;;8.74;100.00;99478.00;6125118;23;20162;-81